createdAt,value
2023-05-24T00:02:26.645Z,100.00
2023-05-24T00:05:54.387Z,100.00
2023-05-24T00:09:04.203Z,100.00
2023-05-24T00:12:32.043Z,100.00
2023-05-24T00:15:10.124Z,100.00
2023-05-24T00:17:59.774Z,100.00
2023-05-24T00:21:06.171Z,100.00
2023-05-24T00:24:16.337Z,98.99
2023-05-24T00:27:26.306Z,97.57
2023-05-24T00:29:58.415Z,97.33
2023-05-24T00:33:06.179Z,97.54
2023-05-24T00:36:34.359Z,96.20
2023-05-24T00:39:44.352Z,96.20
2023-05-24T00:42:53.805Z,96.02
2023-05-24T00:46:03.608Z,95.46
2023-05-24T00:49:15.362Z,95.56
2023-05-24T00:52:31.256Z,92.05
2023-05-24T00:55:58.956Z,91.94
2023-05-24T00:58:40.114Z,93.01
2023-05-24T01:01:48.477Z,92.38
2023-05-24T01:04:17.730Z,91.65
2023-05-24T01:07:05.639Z,92.71
2023-05-24T01:09:57.719Z,93.05
2023-05-24T01:13:09.758Z,93.89
2023-05-24T01:16:02.064Z,94.72
2023-05-24T01:19:11.846Z,92.51
2023-05-24T01:22:23.624Z,93.58
2023-05-24T01:25:15.979Z,93.71
2023-05-24T01:28:24.646Z,93.52
2023-05-24T01:31:48.619Z,95.19
2023-05-24T01:34:56.501Z,94.99
2023-05-24T01:37:46.519Z,93.77
2023-05-24T01:41:15.574Z,93.62
2023-05-24T01:44:13.027Z,93.12
2023-05-24T01:47:41.541Z,95.53
2023-05-24T01:51:09.400Z,95.52
2023-05-24T01:53:58.230Z,95.82
2023-05-24T01:56:50.207Z,94.91
2023-05-24T01:59:48.032Z,93.97
2023-05-24T02:02:46.189Z,93.80
2023-05-24T02:06:13.828Z,96.43
2023-05-24T02:09:25.437Z,94.04
2023-05-24T02:12:37.473Z,94.71
2023-05-24T02:15:17.715Z,93.03
2023-05-24T02:18:34.003Z,94.06
2023-05-24T02:22:02.306Z,92.89
2023-05-24T02:25:10.533Z,93.37
2023-05-24T02:27:59.433Z,93.57
2023-05-24T02:31:27.544Z,93.40
2023-05-24T02:34:36.173Z,93.47
2023-05-24T02:37:32.985Z,93.12
2023-05-24T02:40:48.504Z,93.90
2023-05-24T02:44:11.869Z,93.96
2023-05-24T02:47:39.764Z,93.95
2023-05-24T02:51:07.519Z,94.07
2023-05-24T02:54:37.664Z,95.09
2023-05-24T02:58:00.699Z,97.03
2023-05-24T03:01:28.542Z,97.40
2023-05-24T03:04:09.870Z,97.99
2023-05-24T03:07:06.045Z,98.05
2023-05-24T03:10:34.337Z,95.56
2023-05-24T03:13:31.659Z,97.38
2023-05-24T03:16:59.530Z,96.80
2023-05-24T03:20:27.514Z,97.31
2023-05-24T03:23:35.818Z,96.71
2023-05-24T03:26:32.047Z,96.14
2023-05-24T03:29:59.727Z,97.01
2023-05-24T03:33:27.602Z,97.43
2023-05-24T03:36:36.559Z,96.13
2023-05-24T03:39:52.102Z,96.90
2023-05-24T03:43:22.688Z,95.79
2023-05-24T03:46:32.260Z,96.75
2023-05-24T03:49:36.930Z,95.25
2023-05-24T03:52:23.214Z,95.59
2023-05-24T03:55:51.088Z,95.47
2023-05-24T03:58:58.814Z,95.14
2023-05-24T04:01:51.746Z,94.28
2023-05-24T04:04:59.740Z,95.00
2023-05-24T04:08:15.713Z,94.88
2023-05-24T04:11:26.223Z,95.35
2023-05-24T04:14:29.858Z,96.01
2023-05-24T04:17:58.264Z,95.88
2023-05-24T04:21:26.350Z,95.73
2023-05-24T04:24:36.476Z,96.29
2023-05-24T04:28:04.380Z,95.84
2023-05-24T04:30:41.774Z,94.58
2023-05-24T04:33:34.328Z,96.10
2023-05-24T04:36:24.360Z,98.48
2023-05-24T04:39:52.426Z,96.89
2023-05-24T04:42:42.277Z,96.59
2023-05-24T04:45:34.215Z,96.47
2023-05-24T04:48:43.508Z,95.28
2023-05-24T04:51:17.440Z,94.66
2023-05-24T04:54:26.940Z,93.70
2023-05-24T04:57:20.615Z,93.88
2023-05-24T05:00:10.138Z,95.49
2023-05-24T05:03:28.216Z,96.90
2023-05-24T05:06:20.913Z,97.61
2023-05-24T05:09:29.550Z,97.41
2023-05-24T05:12:57.212Z,96.59
2023-05-24T05:16:25.625Z,94.89
2023-05-24T05:19:13.683Z,93.49
2023-05-24T05:21:58.749Z,93.60
2023-05-24T05:24:30.951Z,95.84
2023-05-24T05:27:39.553Z,97.28
2023-05-24T05:30:48.152Z,100.00
2023-05-24T05:33:48.016Z,100.00
2023-05-24T05:36:37.116Z,100.00
2023-05-24T05:39:29.250Z,100.00
2023-05-24T05:42:22.312Z,100.00
2023-05-24T05:45:21.125Z,100.00
2023-05-24T05:48:29.292Z,100.00
2023-05-24T05:51:57.076Z,100.00
2023-05-24T05:55:25.360Z,100.00
2023-05-24T05:58:53.853Z,100.00
2023-05-24T06:02:21.933Z,100.00
2023-05-24T06:05:31.252Z,100.00
2023-05-24T06:08:59.226Z,100.00
2023-05-24T06:12:27.279Z,100.00
2023-05-24T06:16:03.820Z,100.00
2023-05-24T06:19:31.912Z,100.00
2023-05-24T06:22:59.957Z,100.00
2023-05-24T06:26:27.819Z,100.00
2023-05-24T06:29:56.107Z,100.00
2023-05-24T06:33:24.147Z,100.00
2023-05-24T06:36:52.430Z,100.00
2023-05-24T06:40:00.422Z,100.00
2023-05-24T06:43:09.149Z,100.00
2023-05-24T06:46:37.876Z,100.00
2023-05-24T06:50:02.271Z,100.00
2023-05-24T06:52:34.404Z,100.00
2023-05-24T06:56:02.743Z,100.00
2023-05-24T06:59:15.092Z,100.00
2023-05-24T07:02:23.254Z,100.00
2023-05-24T07:05:51.240Z,100.00
2023-05-24T07:08:49.357Z,100.00
2023-05-24T07:11:57.364Z,100.00
2023-05-24T07:15:25.510Z,100.00
2023-05-24T07:17:55.548Z,100.00
2023-05-24T07:21:23.463Z,100.00
2023-05-24T07:24:16.605Z,100.00
2023-05-24T07:27:06.734Z,100.00
2023-05-24T07:29:46.297Z,100.00
2023-05-24T07:32:54.291Z,100.00
2023-05-24T07:35:27.066Z,100.00
2023-05-24T07:38:14.987Z,100.00
2023-05-24T07:41:13.628Z,100.00
2023-05-24T07:44:02.013Z,100.00
2023-05-24T07:46:31.193Z,100.00
2023-05-24T07:49:22.242Z,100.00
2023-05-24T07:52:08.737Z,100.00
2023-05-24T07:54:57.880Z,100.00
2023-05-24T07:57:56.049Z,100.00
2023-05-24T08:00:48.345Z,100.00
2023-05-24T08:03:17.425Z,100.00
2023-05-24T08:06:08.142Z,100.00
2023-05-24T08:08:36.465Z,100.00
2023-05-24T08:11:05.748Z,100.00
2023-05-24T08:13:49.632Z,100.00
2023-05-24T08:16:21.605Z,100.00
2023-05-24T08:19:11.820Z,100.00
2023-05-24T08:21:48.580Z,100.00
2023-05-24T08:24:40.533Z,100.00
2023-05-24T08:27:31.589Z,100.00
2023-05-24T08:30:21.078Z,100.00
2023-05-24T08:32:52.267Z,100.00
2023-05-24T08:35:28.751Z,100.00
2023-05-24T08:38:21.016Z,100.00
2023-05-24T08:40:49.297Z,100.00
2023-05-24T08:43:18.375Z,100.00
2023-05-24T08:45:46.991Z,100.00
2023-05-24T08:48:16.083Z,100.00
2023-05-24T08:50:44.158Z,100.00
2023-05-24T08:53:12.656Z,100.00
2023-05-24T08:55:45.210Z,100.00
2023-05-24T08:58:13.884Z,100.00
2023-05-24T09:00:42.143Z,100.00
2023-05-24T09:03:11.718Z,100.00
2023-05-24T09:05:40.913Z,100.00
2023-05-24T09:08:10.285Z,100.00
2023-05-24T09:10:52.806Z,100.00
2023-05-24T09:13:24.001Z,100.00
2023-05-24T09:15:52.925Z,100.00
2023-05-24T09:18:22.033Z,100.00
2023-05-24T09:20:50.433Z,100.00
2023-05-24T09:23:19.500Z,100.00
2023-05-24T09:25:50.246Z,100.00
2023-05-24T09:28:22.764Z,100.00
2023-05-24T09:30:52.086Z,100.00
2023-05-24T09:33:21.296Z,100.00
2023-05-24T09:35:54.404Z,100.00
2023-05-24T09:38:23.103Z,100.00
2023-05-24T09:41:11.244Z,100.00
2023-05-24T09:43:40.677Z,98.36
2023-05-24T09:46:13.315Z,96.26
2023-05-24T09:48:54.271Z,97.65
2023-05-24T09:51:22.765Z,98.16
2023-05-24T09:54:11.156Z,98.74
2023-05-24T09:56:40.825Z,97.76
2023-05-24T09:59:10.984Z,99.57
2023-05-24T10:01:40.842Z,98.51
2023-05-24T10:04:17.980Z,97.64
2023-05-24T10:06:46.453Z,92.13
2023-05-24T10:09:20.278Z,90.01
2023-05-24T10:11:48.666Z,89.02
2023-05-24T10:14:18.236Z,90.70
2023-05-24T10:16:47.215Z,90.91
2023-05-24T10:19:17.327Z,92.18
2023-05-24T10:22:03.135Z,92.96
2023-05-24T10:24:32.408Z,87.49
2023-05-24T10:27:00.908Z,83.21
2023-05-24T10:29:33.205Z,86.32
2023-05-24T10:32:01.954Z,86.53
2023-05-24T10:34:32.273Z,86.81
2023-05-24T10:37:00.655Z,85.05
2023-05-24T10:39:49.649Z,84.84
2023-05-24T10:42:37.682Z,90.69
2023-05-24T10:45:07.099Z,90.95
2023-05-24T10:47:39.043Z,88.97
2023-05-24T10:50:08.051Z,86.50
2023-05-24T10:52:36.653Z,95.91
2023-05-24T10:55:24.973Z,90.74
2023-05-24T10:58:33.914Z,86.56
2023-05-24T11:01:02.660Z,87.25
2023-05-24T11:03:32.353Z,85.67
2023-05-24T11:06:28.550Z,78.99
2023-05-24T11:08:57.833Z,79.83
2023-05-24T11:11:47.822Z,82.26
2023-05-24T11:14:28.648Z,81.98
2023-05-24T11:16:58.666Z,77.04
2023-05-24T11:19:43.377Z,78.18
2023-05-24T11:22:13.735Z,79.19
2023-05-24T11:25:01.787Z,77.27
2023-05-24T11:28:07.700Z,77.46
2023-05-24T11:30:53.314Z,76.75
2023-05-24T11:33:24.074Z,77.52
2023-05-24T11:36:14.188Z,75.00
2023-05-24T11:38:42.841Z,78.38
2023-05-24T11:41:32.930Z,72.08
2023-05-24T11:44:02.245Z,73.80
2023-05-24T11:46:31.203Z,71.25
2023-05-24T11:49:19.310Z,81.05
2023-05-24T11:51:57.080Z,71.90
2023-05-24T11:54:26.049Z,75.61
2023-05-24T11:56:56.094Z,70.67
2023-05-24T11:59:25.307Z,68.57
2023-05-24T12:01:53.017Z,72.07
2023-05-24T12:04:20.989Z,66.99
2023-05-24T12:06:50.680Z,67.21
2023-05-24T12:09:20.081Z,62.07
2023-05-24T12:11:51.720Z,63.50
2023-05-24T12:14:20.868Z,62.14
2023-05-24T12:16:53.039Z,59.24
2023-05-24T12:21:54.117Z,68.67
2023-05-24T12:24:22.828Z,59.08
2023-05-24T12:26:51.233Z,56.81
2023-05-24T12:29:40.094Z,57.85
2023-05-24T12:32:16.229Z,55.86
2023-05-24T12:34:44.799Z,57.26
2023-05-24T12:37:14.027Z,56.34
2023-05-24T12:39:44.661Z,53.90
2023-05-24T12:42:15.907Z,53.69
2023-05-24T12:44:48.080Z,49.41
2023-05-24T12:47:17.053Z,69.43
2023-05-24T12:49:46.278Z,60.33
2023-05-24T12:52:16.070Z,49.94
2023-05-24T12:54:46.065Z,52.30
2023-05-24T12:57:36.402Z,56.51
2023-05-24T13:00:04.053Z,50.09
2023-05-24T13:02:32.975Z,47.52
2023-05-24T13:05:07.374Z,49.20
2023-05-24T13:07:35.798Z,49.24
2023-05-24T13:10:07.181Z,49.29
2023-05-24T13:12:35.137Z,48.22
2023-05-24T13:15:03.050Z,50.01
2023-05-24T13:17:31.053Z,46.31
2023-05-24T13:19:59.295Z,55.74
2023-05-24T13:22:27.562Z,44.84
2023-05-24T13:24:55.222Z,44.02
2023-05-24T13:27:24.273Z,45.70
2023-05-24T13:32:27.590Z,41.30
2023-05-24T13:34:59.226Z,40.84
2023-05-24T13:37:28.197Z,42.80
2023-05-24T13:40:00.644Z,39.98
2023-05-24T13:42:29.430Z,46.84
2023-05-24T13:44:59.245Z,49.04
2023-05-24T13:47:39.215Z,39.94
2023-05-24T13:50:12.016Z,45.13
2023-05-24T13:52:41.421Z,41.10
2023-05-24T13:55:09.201Z,43.94
2023-05-24T13:57:49.752Z,41.66
2023-05-24T14:00:25.397Z,38.27
2023-05-24T14:03:14.004Z,37.23
2023-05-24T14:06:22.176Z,38.61
2023-05-24T14:08:52.438Z,39.06
2023-05-24T14:11:21.079Z,39.65
2023-05-24T14:16:28.707Z,38.23
2023-05-24T14:19:16.562Z,36.42
2023-05-24T14:22:05.393Z,37.05
2023-05-24T14:24:34.365Z,35.87
2023-05-24T14:27:03.976Z,38.83
2023-05-24T14:29:51.832Z,36.40
2023-05-24T14:32:24.322Z,35.28
2023-05-24T14:34:57.832Z,34.77
2023-05-24T14:37:45.808Z,33.67
2023-05-24T14:40:38.394Z,34.08
2023-05-24T14:43:22.596Z,34.29
2023-05-24T14:46:31.595Z,33.66
2023-05-24T14:49:00.966Z,33.11
2023-05-24T14:52:04.835Z,33.17
2023-05-24T14:54:46.266Z,32.75
2023-05-24T14:57:34.625Z,32.17
2023-05-24T15:00:03.238Z,32.62
2023-05-24T15:02:59.394Z,32.86
2023-05-24T15:05:29.569Z,32.23
2023-05-24T15:08:25.882Z,33.97
2023-05-24T15:11:07.656Z,33.64
2023-05-24T15:13:35.968Z,40.30
2023-05-24T15:16:24.805Z,37.85
2023-05-24T15:19:29.371Z,35.61
2023-05-24T15:22:07.222Z,36.83
2023-05-24T15:24:59.188Z,38.23
2023-05-24T15:28:08.950Z,39.59
2023-05-24T15:30:41.806Z,41.13
2023-05-24T15:33:34.621Z,42.09
2023-05-24T15:36:07.303Z,43.12
2023-05-24T15:39:26.336Z,43.08
2023-05-24T15:42:31.853Z,40.84
2023-05-24T15:45:40.600Z,39.11
2023-05-24T15:48:24.959Z,37.63
2023-05-24T15:52:02.595Z,36.95
2023-05-24T15:54:42.398Z,36.39
2023-05-24T15:57:11.234Z,35.73
2023-05-24T15:59:59.534Z,35.39
2023-05-24T16:02:41.923Z,34.55
2023-05-24T16:05:32.213Z,34.30
2023-05-24T16:08:04.264Z,33.72
2023-05-24T16:10:32.580Z,33.44
2023-05-24T16:13:02.582Z,32.82
2023-05-24T16:15:50.761Z,32.89
2023-05-24T16:18:38.708Z,33.34
2023-05-24T16:21:08.654Z,33.37
2023-05-24T16:24:16.843Z,33.56
2023-05-24T16:26:45.961Z,34.01
2023-05-24T16:29:37.082Z,33.94
2023-05-24T16:32:05.414Z,34.07
2023-05-24T16:34:44.849Z,34.08
2023-05-24T16:37:42.258Z,33.21
2023-05-24T16:40:34.369Z,33.30
2023-05-24T16:43:58.880Z,33.44
2023-05-24T16:46:34.558Z,34.13
2023-05-24T16:49:07.917Z,35.39
2023-05-24T16:52:17.685Z,35.76
2023-05-24T16:55:25.033Z,36.50
2023-05-24T16:58:40.501Z,38.18
2023-05-24T17:01:35.584Z,39.46
2023-05-24T17:04:23.736Z,40.32
2023-05-24T17:07:01.067Z,41.85
2023-05-24T17:10:29.006Z,43.91
2023-05-24T17:13:33.218Z,45.69
2023-05-24T17:16:41.194Z,47.71
2023-05-24T17:19:50.977Z,49.14
2023-05-24T17:23:13.582Z,50.19
2023-05-24T17:25:41.959Z,52.02
2023-05-24T17:28:10.149Z,53.28
2023-05-24T17:30:37.920Z,54.29
2023-05-24T17:33:05.865Z,55.11
2023-05-24T17:35:33.496Z,56.22
2023-05-24T17:38:01.917Z,57.54
2023-05-24T17:40:29.566Z,57.82
2023-05-24T17:42:57.615Z,59.24
2023-05-24T17:45:26.879Z,59.49
2023-05-24T17:47:58.163Z,59.28
2023-05-24T17:50:26.887Z,62.10
2023-05-24T17:52:57.689Z,62.64
2023-05-24T17:55:27.060Z,64.25
2023-05-24T17:57:56.363Z,66.17
2023-05-24T18:00:25.252Z,66.37
2023-05-24T18:02:54.075Z,67.23
2023-05-24T18:05:23.554Z,65.85
2023-05-24T18:07:52.975Z,69.46
2023-05-24T18:10:21.579Z,67.91
2023-05-24T18:12:51.041Z,68.21
2023-05-24T18:15:19.675Z,70.49
2023-05-24T18:17:48.202Z,70.55
2023-05-24T18:20:19.964Z,72.20
2023-05-24T18:22:48.478Z,71.39
2023-05-24T18:25:19.184Z,72.19
2023-05-24T18:28:28.282Z,73.24
2023-05-24T18:30:57.372Z,73.20
2023-05-24T18:33:25.228Z,72.67
2023-05-24T18:35:55.406Z,71.94
2023-05-24T18:38:24.224Z,72.20
2023-05-24T18:40:54.516Z,71.86
2023-05-24T18:43:23.739Z,71.86
2023-05-24T18:45:53.566Z,71.80
2023-05-24T18:48:21.345Z,71.88
2023-05-24T18:51:05.333Z,72.39
2023-05-24T18:53:55.431Z,72.70
2023-05-24T18:56:27.868Z,73.05
2023-05-24T18:58:58.425Z,73.18
2023-05-24T19:01:54.870Z,73.52
2023-05-24T19:04:47.285Z,73.82
2023-05-24T19:07:16.274Z,74.11
2023-05-24T19:09:45.986Z,74.54
2023-05-24T19:12:16.225Z,75.06
2023-05-24T19:14:46.546Z,74.88
2023-05-24T19:17:18.694Z,75.29
2023-05-24T19:19:47.991Z,75.26
2023-05-24T19:22:16.996Z,75.50
2023-05-24T19:24:46.485Z,75.61
2023-05-24T19:27:16.688Z,75.86
2023-05-24T19:29:49.086Z,76.37
2023-05-24T19:32:18.011Z,76.63
2023-05-24T19:34:45.994Z,76.97
2023-05-24T19:37:18.478Z,76.88
2023-05-24T19:39:50.554Z,76.64
2023-05-24T19:42:19.218Z,76.06
2023-05-24T19:44:48.443Z,76.86
2023-05-24T19:47:16.917Z,77.50
2023-05-24T19:49:44.694Z,78.59
2023-05-24T19:52:14.129Z,77.89
2023-05-24T19:54:46.252Z,77.47
2023-05-24T19:57:14.875Z,77.66
2023-05-24T19:59:50.753Z,79.49
2023-05-24T20:02:18.657Z,78.34
2023-05-24T20:04:46.697Z,78.89
2023-05-24T20:07:15.170Z,78.60
2023-05-24T20:10:03.971Z,78.40
2023-05-24T20:12:34.725Z,78.52
2023-05-24T20:15:05.692Z,79.43
2023-05-24T20:17:54.928Z,81.93
2023-05-24T20:20:24.844Z,84.39
2023-05-24T20:22:53.671Z,84.18
2023-05-24T20:26:18.447Z,89.57
2023-05-24T20:29:27.754Z,88.04
2023-05-24T20:32:18.442Z,86.89
2023-05-24T20:34:54.316Z,88.66
2023-05-24T20:37:42.975Z,90.71
2023-05-24T20:40:12.640Z,89.80
2023-05-24T20:42:43.321Z,88.93
2023-05-24T20:45:29.580Z,88.34
2023-05-24T20:47:58.917Z,89.71
2023-05-24T20:50:28.422Z,89.17
2023-05-24T20:53:24.249Z,88.94
2023-05-24T20:56:15.124Z,89.40
2023-05-24T20:58:45.958Z,88.91
2023-05-24T21:01:36.686Z,88.06
2023-05-24T21:04:15.140Z,88.24
2023-05-24T21:07:15.268Z,87.86
2023-05-24T21:10:03.461Z,87.20
2023-05-24T21:12:38.576Z,87.06
2023-05-24T21:15:47.434Z,87.11
2023-05-24T21:18:20.365Z,86.68
2023-05-24T21:20:54.997Z,86.52
2023-05-24T21:23:32.565Z,86.30
2023-05-24T21:26:01.186Z,86.56
2023-05-24T21:28:57.484Z,86.90
2023-05-24T21:31:30.564Z,86.63
2023-05-24T21:34:00.557Z,87.21
2023-05-24T21:36:52.893Z,87.45
2023-05-24T21:39:57.549Z,87.77
2023-05-24T21:42:49.310Z,87.72
2023-05-24T21:45:37.700Z,88.55
2023-05-24T21:48:33.684Z,88.77
2023-05-24T21:51:04.092Z,90.13
2023-05-24T21:54:00.866Z,88.19
2023-05-24T21:56:54.572Z,89.30
2023-05-24T21:59:25.204Z,89.48
2023-05-24T22:02:14.835Z,89.86
2023-05-24T22:05:19.179Z,89.65
2023-05-24T22:07:50.107Z,89.58
2023-05-24T22:11:00.775Z,89.35
2023-05-24T22:14:28.817Z,91.62
2023-05-24T22:16:57.618Z,90.92
2023-05-24T22:20:05.368Z,90.71
2023-05-24T22:23:14.569Z,91.05
2023-05-24T22:26:04.452Z,91.08
2023-05-24T22:29:32.373Z,92.48
2023-05-24T22:32:21.026Z,94.16
2023-05-24T22:35:10.405Z,94.37
2023-05-24T22:38:02.726Z,95.16
2023-05-24T22:40:37.531Z,95.24
2023-05-24T22:43:08.283Z,95.80
2023-05-24T22:45:36.909Z,99.35
2023-05-24T22:49:04.990Z,99.88
2023-05-24T22:51:49.894Z,99.98
2023-05-24T22:54:38.343Z,100.00
2023-05-24T22:57:50.015Z,100.00
2023-05-24T23:00:19.199Z,100.00
2023-05-24T23:02:50.234Z,100.00
2023-05-24T23:05:58.305Z,100.00
2023-05-24T23:08:56.007Z,100.00
2023-05-24T23:12:04.603Z,100.00
2023-05-24T23:15:09.124Z,100.00
2023-05-24T23:18:01.056Z,100.00
2023-05-24T23:21:24.569Z,100.00
2023-05-24T23:24:20.340Z,100.00
2023-05-24T23:26:53.801Z,100.00
2023-05-24T23:29:44.703Z,100.00
2023-05-24T23:32:48.824Z,100.00
2023-05-24T23:35:41.240Z,100.00
2023-05-24T23:38:49.374Z,100.00
2023-05-24T23:42:05.824Z,100.00
2023-05-24T23:45:15.319Z,100.00
2023-05-24T23:48:43.274Z,100.00
2023-05-24T23:51:59.354Z,100.00
2023-05-24T23:54:49.436Z,100.00
2023-05-24T23:57:20.180Z,100.00
